Alcove, New York
Current Conditions -  °F | °C
As of 12:51 AM on Saturday 20 Dec 2014 (Local Time) from KALB Reporting Station
Overcast Overcast  
Wind Chill: -9°   Ceiling: 2000
Heat Index: -3°   Visibility: 10mi
Dew Point: -8°   Wind: 10mph
Humidity: 71%   Direction: 320°NW
Pressure: 30.23"   Gusts: NA
Location:  42.47°N, 73.93°W
Report Text: KALB 200551Z 32009KT 10SM OVC020 M03/M08 A3023 RMK AO2 SLP240 4/001 T10331078 11017 21033 51010
Loading
Personal Weather Stations






























Interactive Weather Map New forecast layout! Learn more

10-Day Weather Forecast

Advertisements
Track Severe Weather on mobile